HAZ3202 ZGHA-ZGSZ
Flight info
| Callsign | HAZ3202 |
|---|---|
| Flight time | 1h 13m |
| Altitude | 26600 |
| Route | UBM7W UBMOG W615 IDAXI R473 NNX/K0824S0780 R473 NOLON W90 POU/K0835S0810 W7 SAREX SAREX4 |
| Aircraft | B772/H-SDE2E3FGHIJ5LORVWXY/LB1D1 |
Departure
| Time | 2026-04-24 14:17 |
|---|---|
| Airport | Changsha Huanghua International Airport (ZGHA) |
Arrival
| Time | 2026-04-24 15:30 |
|---|---|
| Airport | Shenzhen Bao'an International Airport (ZGSZ) |
| Time | Latitude | Longitude | Altitude | Speed | Heading |
|---|---|---|---|---|---|
| 2026-04-24 13:58 | 28.19338 | 113.21555 | 233 ft | 0 kts | 240° |
| 2026-04-24 14:00 | 28.19342 | 113.21562 | 233 ft | 2 kts | 240° |
| 2026-04-24 14:00 | 28.19349 | 113.21577 | 233 ft | 2 kts | 240° |
| 2026-04-24 14:01 | 28.19356 | 113.21592 | 233 ft | 2 kts | 240° |
| 2026-04-24 14:01 | 28.19364 | 113.21606 | 233 ft | 2 kts | 240° |
| 2026-04-24 14:01 | 28.19371 | 113.21621 | 233 ft | 2 kts | 240° |
| 2026-04-24 14:01 | 28.19376 | 113.21631 | 233 ft | 1 kts | 240° |
| 2026-04-24 14:02 | 28.19385 | 113.21644 | 233 ft | 2 kts | 210° |
| 2026-04-24 14:02 | 28.19399 | 113.21649 | 233 ft | 2 kts | 183° |
| 2026-04-24 14:02 | 28.19405 | 113.21649 | 233 ft | 1 kts | 176° |
| 2026-04-24 14:02 | 28.19407 | 113.21649 | 233 ft | 0 kts | 176° |
| 2026-04-24 14:06 | 28.19403 | 113.21649 | 233 ft | 1 kts | 177° |
| 2026-04-24 14:06 | 28.19397 | 113.21650 | 233 ft | 0 kts | 177° |
| 2026-04-24 14:06 | 28.19371 | 113.21651 | 233 ft | 5 kts | 178° |
| 2026-04-24 14:07 | 28.19337 | 113.21652 | 233 ft | 4 kts | 177° |
| 2026-04-24 14:07 | 28.19285 | 113.21655 | 233 ft | 14 kts | 178° |
| 2026-04-24 14:07 | 28.19168 | 113.21693 | 233 ft | 16 kts | 122° |
| 2026-04-24 14:07 | 28.19129 | 113.21760 | 233 ft | 8 kts | 151° |
| 2026-04-24 14:08 | 28.19063 | 113.21780 | 233 ft | 10 kts | 175° |
| 2026-04-24 14:08 | 28.18981 | 113.21785 | 233 ft | 12 kts | 176° |
| 2026-04-24 14:08 | 28.18885 | 113.21791 | 233 ft | 14 kts | 176° |
| 2026-04-24 14:08 | 28.18776 | 113.21797 | 233 ft | 16 kts | 178° |
| 2026-04-24 14:09 | 28.18636 | 113.21806 | 233 ft | 22 kts | 177° |
| 2026-04-24 14:09 | 28.18473 | 113.21814 | 233 ft | 23 kts | 177° |
| 2026-04-24 14:09 | 28.18306 | 113.21825 | 233 ft | 24 kts | 176° |
| 2026-04-24 14:09 | 28.18144 | 113.21838 | 233 ft | 8 kts | 174° |
| 2026-04-24 14:10 | 28.18098 | 113.21860 | 234 ft | 7 kts | 120° |
| 2026-04-24 14:10 | 28.18087 | 113.21926 | 234 ft | 9 kts | 85° |
| 2026-04-24 14:10 | 28.18078 | 113.22027 | 234 ft | 19 kts | 106° |
| 2026-04-24 14:10 | 28.18098 | 113.22208 | 234 ft | 24 kts | 28° |
| 2026-04-24 14:11 | 28.18266 | 113.22214 | 233 ft | 24 kts | 358° |
| 2026-04-24 14:11 | 28.18443 | 113.22201 | 234 ft | 27 kts | 355° |
| 2026-04-24 14:11 | 28.18846 | 113.22176 | 233 ft | 26 kts | 355° |
| 2026-04-24 14:12 | 28.19042 | 113.22163 | 233 ft | 29 kts | 358° |
| 2026-04-24 14:12 | 28.19258 | 113.22151 | 233 ft | 32 kts | 356° |
| 2026-04-24 14:12 | 28.19491 | 113.22136 | 233 ft | 34 kts | 356° |
| 2026-04-24 14:12 | 28.19712 | 113.22122 | 233 ft | 19 kts | 359° |
| 2026-04-24 14:13 | 28.19857 | 113.22112 | 233 ft | 22 kts | 356° |
| 2026-04-24 14:13 | 28.20025 | 113.22102 | 233 ft | 25 kts | 357° |
| 2026-04-24 14:13 | 28.20212 | 113.22089 | 233 ft | 28 kts | 356° |
| 2026-04-24 14:13 | 28.20418 | 113.22070 | 233 ft | 30 kts | 358° |
| 2026-04-24 14:14 | 28.20575 | 113.22067 | 233 ft | 11 kts | 341° |
| 2026-04-24 14:14 | 28.20600 | 113.22019 | 233 ft | 9 kts | 285° |
| 2026-04-24 14:14 | 28.20525 | 113.21877 | 233 ft | 14 kts | 180° |
| 2026-04-24 14:15 | 28.20414 | 113.21883 | 233 ft | 17 kts | 178° |
| 2026-04-24 14:15 | 28.20403 | 113.21884 | 233 ft | 0 kts | 176° |
| 2026-04-24 14:15 | 28.20170 | 113.21897 | 233 ft | 77 kts | 174° |
| 2026-04-24 14:16 | 28.19446 | 113.21942 | 234 ft | 136 kts | 176° |
| 2026-04-24 14:16 | 28.18313 | 113.22005 | 310 ft | 183 kts | 178° |
| 2026-04-24 14:16 | 28.17012 | 113.22086 | 789 ft | 195 kts | 177° |
| 2026-04-24 14:17 | 28.14125 | 113.22271 | 1907 ft | 221 kts | 176° |
| 2026-04-24 14:17 | 28.12543 | 113.22369 | 2371 ft | 229 kts | 176° |
| 2026-04-24 14:17 | 28.09584 | 113.23593 | 3294 ft | 244 kts | 135° |
| 2026-04-24 14:18 | 28.08618 | 113.25222 | 3728 ft | 255 kts | 109° |
| 2026-04-24 14:18 | 28.08314 | 113.27183 | 4296 ft | 261 kts | 94° |
| 2026-04-24 14:18 | 28.08208 | 113.29252 | 4986 ft | 263 kts | 92° |
| 2026-04-24 14:18 | 28.08096 | 113.31310 | 5670 ft | 265 kts | 92° |
| 2026-04-24 14:19 | 28.07967 | 113.33376 | 6343 ft | 267 kts | 92° |
| 2026-04-24 14:19 | 28.07828 | 113.35497 | 6886 ft | 274 kts | 91° |
| 2026-04-24 14:19 | 28.07685 | 113.37647 | 7495 ft | 278 kts | 91° |
| 2026-04-24 14:19 | 28.07539 | 113.39848 | 8090 ft | 282 kts | 91° |
| 2026-04-24 14:20 | 28.07391 | 113.42065 | 8687 ft | 286 kts | 91° |
| 2026-04-24 14:20 | 28.07241 | 113.44314 | 9284 ft | 289 kts | 91° |
| 2026-04-24 14:20 | 28.07056 | 113.46597 | 9848 ft | 295 kts | 95° |
| 2026-04-24 14:20 | 28.06761 | 113.48902 | 10295 ft | 304 kts | 95° |
| 2026-04-24 14:21 | 28.06447 | 113.51351 | 10487 ft | 323 kts | 95° |
| 2026-04-24 14:21 | 28.06127 | 113.53941 | 10753 ft | 338 kts | 95° |
| 2026-04-24 14:21 | 28.05806 | 113.56577 | 11377 ft | 341 kts | 95° |
| 2026-04-24 14:21 | 28.05485 | 113.59216 | 12060 ft | 344 kts | 95° |
| 2026-04-24 14:22 | 28.05155 | 113.61919 | 12705 ft | 349 kts | 97° |
| 2026-04-24 14:22 | 28.04466 | 113.64548 | 13298 ft | 358 kts | 115° |
| 2026-04-24 14:22 | 28.01197 | 113.68748 | 14713 ft | 365 kts | 149° |
| 2026-04-24 14:23 | 27.98871 | 113.69976 | 15417 ft | 367 kts | 166° |
| 2026-04-24 14:23 | 27.96364 | 113.70431 | 16070 ft | 369 kts | 183° |
| 2026-04-24 14:23 | 27.93830 | 113.70131 | 16773 ft | 368 kts | 195° |
| 2026-04-24 14:23 | 27.91302 | 113.69625 | 17587 ft | 370 kts | 194° |
| 2026-04-24 14:24 | 27.88745 | 113.69202 | 18398 ft | 373 kts | 192° |
| 2026-04-24 14:24 | 27.86182 | 113.68854 | 19081 ft | 378 kts | 192° |
| 2026-04-24 14:24 | 27.83545 | 113.68553 | 19726 ft | 383 kts | 191° |
| 2026-04-24 14:24 | 27.80858 | 113.68272 | 20410 ft | 387 kts | 191° |
| 2026-04-24 14:25 | 27.78938 | 113.68082 | 20860 ft | 390 kts | 192° |
| 2026-04-24 14:25 | 27.77585 | 113.67951 | 21210 ft | 392 kts | 192° |
| 2026-04-24 14:25 | 27.74859 | 113.67692 | 21851 ft | 395 kts | 192° |
| 2026-04-24 14:25 | 27.72098 | 113.67436 | 22491 ft | 398 kts | 192° |
| 2026-04-24 14:26 | 27.69343 | 113.67184 | 23121 ft | 401 kts | 192° |
| 2026-04-24 14:26 | 27.66540 | 113.66931 | 23764 ft | 404 kts | 192° |
| 2026-04-24 14:26 | 27.63731 | 113.66747 | 24427 ft | 409 kts | 188° |
| 2026-04-24 14:26 | 27.60872 | 113.66798 | 25123 ft | 411 kts | 186° |
| 2026-04-24 14:27 | 27.58031 | 113.66876 | 25747 ft | 413 kts | 187° |
| 2026-04-24 14:27 | 27.55135 | 113.66956 | 26392 ft | 414 kts | 187° |
| 2026-04-24 14:27 | 27.52274 | 113.67034 | 26639 ft | 414 kts | 187° |
| 2026-04-24 14:27 | 27.49384 | 113.67114 | 26662 ft | 412 kts | 187° |
| 2026-04-24 14:28 | 27.46540 | 113.67192 | 26669 ft | 409 kts | 186° |
| 2026-04-24 14:28 | 27.43664 | 113.67499 | 26667 ft | 416 kts | 180° |
| 2026-04-24 14:28 | 27.40802 | 113.67951 | 26664 ft | 417 kts | 180° |
| 2026-04-24 14:28 | 27.37909 | 113.68418 | 26669 ft | 417 kts | 180° |
| 2026-04-24 14:29 | 27.35051 | 113.68877 | 26657 ft | 416 kts | 180° |
| 2026-04-24 14:29 | 27.32159 | 113.69343 | 26668 ft | 416 kts | 180° |
| 2026-04-24 14:29 | 27.29286 | 113.69802 | 26673 ft | 418 kts | 180° |
| 2026-04-24 14:29 | 27.26435 | 113.70259 | 26674 ft | 415 kts | 180° |
| 2026-04-24 14:30 | 27.24506 | 113.70567 | 26673 ft | 417 kts | 180° |
| 2026-04-24 14:30 | 27.20669 | 113.71180 | 26672 ft | 417 kts | 180° |
| 2026-04-24 14:30 | 27.17794 | 113.71641 | 26675 ft | 417 kts | 180° |
| 2026-04-24 14:30 | 27.14921 | 113.72101 | 26669 ft | 416 kts | 180° |
| 2026-04-24 14:31 | 27.12059 | 113.72559 | 26672 ft | 414 kts | 180° |
| 2026-04-24 14:31 | 27.09200 | 113.73016 | 26679 ft | 415 kts | 180° |
| 2026-04-24 14:31 | 27.06317 | 113.73474 | 26675 ft | 418 kts | 180° |
| 2026-04-24 14:31 | 27.03477 | 113.73928 | 26679 ft | 417 kts | 180° |
| 2026-04-24 14:32 | 27.00589 | 113.74389 | 26677 ft | 417 kts | 180° |
| 2026-04-24 14:32 | 26.97700 | 113.74849 | 26669 ft | 418 kts | 180° |
| 2026-04-24 14:32 | 26.94817 | 113.75310 | 26674 ft | 415 kts | 180° |
| 2026-04-24 14:32 | 26.91954 | 113.75766 | 26682 ft | 416 kts | 180° |
| 2026-04-24 14:33 | 26.89082 | 113.76221 | 26682 ft | 418 kts | 180° |
| 2026-04-24 14:33 | 26.86225 | 113.76677 | 26689 ft | 415 kts | 180° |
| 2026-04-24 14:33 | 26.83380 | 113.77129 | 26691 ft | 415 kts | 180° |
| 2026-04-24 14:33 | 26.80522 | 113.77584 | 26688 ft | 415 kts | 180° |
| 2026-04-24 14:34 | 26.77626 | 113.78043 | 26697 ft | 415 kts | 180° |
| 2026-04-24 14:34 | 26.74786 | 113.78508 | 26698 ft | 416 kts | 178° |
| 2026-04-24 14:34 | 26.71962 | 113.79279 | 26715 ft | 421 kts | 173° |
| 2026-04-24 14:34 | 26.69136 | 113.80163 | 26715 ft | 423 kts | 172° |
| 2026-04-24 14:35 | 26.66295 | 113.81057 | 26696 ft | 424 kts | 173° |
| 2026-04-24 14:35 | 26.63460 | 113.81949 | 26708 ft | 421 kts | 172° |
| 2026-04-24 14:35 | 26.60608 | 113.82845 | 26706 ft | 421 kts | 173° |
| 2026-04-24 14:35 | 26.57805 | 113.83723 | 26715 ft | 421 kts | 172° |
| 2026-04-24 14:36 | 26.54961 | 113.84613 | 26701 ft | 423 kts | 173° |
| 2026-04-24 14:36 | 26.52129 | 113.85500 | 26703 ft | 422 kts | 172° |
| 2026-04-24 14:36 | 26.49323 | 113.86375 | 26707 ft | 423 kts | 173° |
| 2026-04-24 14:36 | 26.46479 | 113.87209 | 26721 ft | 421 kts | 174° |
| 2026-04-24 14:37 | 26.43640 | 113.88027 | 26715 ft | 419 kts | 174° |
| 2026-04-24 14:37 | 26.40809 | 113.88841 | 26715 ft | 419 kts | 174° |
| 2026-04-24 14:37 | 26.38003 | 113.89648 | 26722 ft | 419 kts | 174° |
| 2026-04-24 14:37 | 26.35175 | 113.90465 | 26717 ft | 417 kts | 174° |
| 2026-04-24 14:38 | 26.32353 | 113.91278 | 26727 ft | 419 kts | 174° |
| 2026-04-24 14:38 | 26.29512 | 113.92097 | 26734 ft | 419 kts | 174° |
| 2026-04-24 14:38 | 26.26714 | 113.92905 | 26742 ft | 418 kts | 174° |
| 2026-04-24 14:38 | 26.23882 | 113.93721 | 26738 ft | 417 kts | 174° |
| 2026-04-24 14:39 | 26.21086 | 113.94527 | 26755 ft | 417 kts | 174° |
| 2026-04-24 14:39 | 26.18270 | 113.95339 | 26760 ft | 415 kts | 174° |
| 2026-04-24 14:39 | 26.15483 | 113.96142 | 26754 ft | 416 kts | 174° |
| 2026-04-24 14:39 | 26.12673 | 113.96950 | 26758 ft | 416 kts | 174° |
| 2026-04-24 14:40 | 26.09844 | 113.97763 | 26761 ft | 419 kts | 174° |
| 2026-04-24 14:40 | 26.07008 | 113.98579 | 26756 ft | 419 kts | 174° |
| 2026-04-24 14:40 | 26.04219 | 113.99381 | 26761 ft | 418 kts | 174° |
| 2026-04-24 14:40 | 26.01390 | 114.00195 | 26760 ft | 417 kts | 174° |
| 2026-04-24 14:41 | 25.98567 | 114.01029 | 26753 ft | 416 kts | 173° |
| 2026-04-24 14:41 | 25.95782 | 114.01860 | 26757 ft | 417 kts | 174° |
| 2026-04-24 14:41 | 25.92990 | 114.02693 | 26731 ft | 415 kts | 174° |
| 2026-04-24 14:41 | 25.90183 | 114.03529 | 26729 ft | 413 kts | 174° |
| 2026-04-24 14:42 | 25.87399 | 114.04356 | 26735 ft | 415 kts | 174° |
| 2026-04-24 14:42 | 25.84599 | 114.05187 | 26733 ft | 416 kts | 174° |
| 2026-04-24 14:42 | 25.81836 | 114.06008 | 26741 ft | 415 kts | 173° |
| 2026-04-24 14:42 | 25.79007 | 114.06847 | 26735 ft | 418 kts | 173° |
| 2026-04-24 14:43 | 25.76190 | 114.07682 | 26731 ft | 418 kts | 174° |
| 2026-04-24 14:43 | 25.73389 | 114.08513 | 26721 ft | 417 kts | 174° |
| 2026-04-24 14:43 | 25.70578 | 114.09345 | 26717 ft | 417 kts | 173° |
| 2026-04-24 14:43 | 25.67784 | 114.10173 | 26719 ft | 415 kts | 173° |
| 2026-04-24 14:44 | 25.64998 | 114.10998 | 26721 ft | 415 kts | 174° |
| 2026-04-24 14:44 | 25.62214 | 114.11820 | 26722 ft | 416 kts | 173° |
| 2026-04-24 14:44 | 25.59427 | 114.12643 | 26716 ft | 416 kts | 174° |
| 2026-04-24 14:44 | 25.56619 | 114.13474 | 26717 ft | 415 kts | 174° |
| 2026-04-24 14:45 | 25.53827 | 114.14297 | 26721 ft | 418 kts | 173° |
| 2026-04-24 14:45 | 25.51006 | 114.15130 | 26722 ft | 416 kts | 174° |
| 2026-04-24 14:45 | 25.48196 | 114.15959 | 26720 ft | 415 kts | 173° |
| 2026-04-24 14:45 | 25.45410 | 114.16781 | 26717 ft | 416 kts | 173° |
| 2026-04-24 14:46 | 25.42625 | 114.17602 | 26713 ft | 415 kts | 173° |
| 2026-04-24 14:46 | 25.39839 | 114.18422 | 26716 ft | 416 kts | 174° |
| 2026-04-24 14:46 | 25.37004 | 114.19257 | 26711 ft | 416 kts | 173° |
| 2026-04-24 14:46 | 25.34220 | 114.20076 | 26710 ft | 414 kts | 174° |
| 2026-04-24 14:47 | 25.31444 | 114.20893 | 26712 ft | 415 kts | 174° |
| 2026-04-24 14:47 | 25.28650 | 114.21713 | 26713 ft | 415 kts | 173° |
| 2026-04-24 14:47 | 25.25859 | 114.22534 | 26705 ft | 414 kts | 173° |
| 2026-04-24 14:47 | 25.23079 | 114.23350 | 26703 ft | 416 kts | 173° |
| 2026-04-24 14:48 | 25.20245 | 114.24181 | 26705 ft | 417 kts | 173° |
| 2026-04-24 14:48 | 25.17455 | 114.25001 | 26708 ft | 415 kts | 173° |
| 2026-04-24 14:48 | 25.14682 | 114.25816 | 26703 ft | 412 kts | 173° |
| 2026-04-24 14:48 | 25.11917 | 114.26569 | 26690 ft | 408 kts | 179° |
| 2026-04-24 14:49 | 25.09120 | 114.26856 | 26695 ft | 399 kts | 188° |
| 2026-04-24 14:49 | 25.06353 | 114.26601 | 26701 ft | 391 kts | 198° |
| 2026-04-24 14:49 | 25.03674 | 114.26050 | 26701 ft | 388 kts | 199° |
| 2026-04-24 14:49 | 25.01051 | 114.25483 | 26697 ft | 388 kts | 199° |
| 2026-04-24 14:50 | 24.98387 | 114.24905 | 26700 ft | 387 kts | 199° |
| 2026-04-24 14:50 | 24.95753 | 114.24333 | 26695 ft | 386 kts | 199° |
| 2026-04-24 14:50 | 24.93100 | 114.23756 | 26703 ft | 388 kts | 199° |
| 2026-04-24 14:50 | 24.90445 | 114.23177 | 26705 ft | 388 kts | 199° |
| 2026-04-24 14:51 | 24.87799 | 114.22603 | 26704 ft | 387 kts | 199° |
| 2026-04-24 14:51 | 24.85184 | 114.22035 | 26701 ft | 385 kts | 199° |
| 2026-04-24 14:51 | 24.82527 | 114.21457 | 26703 ft | 388 kts | 199° |
| 2026-04-24 14:51 | 24.79874 | 114.20880 | 26706 ft | 386 kts | 199° |
| 2026-04-24 14:52 | 24.77207 | 114.20302 | 26707 ft | 385 kts | 199° |
| 2026-04-24 14:52 | 24.74580 | 114.19731 | 26705 ft | 386 kts | 199° |
| 2026-04-24 14:52 | 24.72123 | 114.19198 | 26712 ft | 385 kts | 199° |
| 2026-04-24 14:52 | 24.69702 | 114.18673 | 26707 ft | 386 kts | 199° |
| 2026-04-24 14:53 | 24.67047 | 114.18096 | 26702 ft | 387 kts | 199° |
| 2026-04-24 14:53 | 24.64389 | 114.17520 | 26701 ft | 388 kts | 199° |
| 2026-04-24 14:53 | 24.61733 | 114.16946 | 26694 ft | 385 kts | 199° |
| 2026-04-24 14:53 | 24.59120 | 114.16380 | 26697 ft | 383 kts | 199° |
| 2026-04-24 14:54 | 24.56491 | 114.15809 | 26694 ft | 389 kts | 199° |
| 2026-04-24 14:54 | 24.53836 | 114.15235 | 26699 ft | 387 kts | 199° |
| 2026-04-24 14:54 | 24.51205 | 114.14667 | 26691 ft | 386 kts | 199° |
| 2026-04-24 14:54 | 24.48563 | 114.14095 | 26692 ft | 387 kts | 198° |
| 2026-04-24 14:55 | 24.46774 | 114.13708 | 26688 ft | 387 kts | 199° |
| 2026-04-24 14:55 | 24.43255 | 114.12949 | 26689 ft | 386 kts | 199° |
| 2026-04-24 14:55 | 24.40613 | 114.12377 | 26688 ft | 388 kts | 198° |
| 2026-04-24 14:55 | 24.37971 | 114.11807 | 26677 ft | 387 kts | 198° |
| 2026-04-24 14:56 | 24.35389 | 114.11039 | 26691 ft | 381 kts | 207° |
| 2026-04-24 14:56 | 24.32997 | 114.09833 | 26685 ft | 374 kts | 216° |
| 2026-04-24 14:56 | 24.30775 | 114.08394 | 26682 ft | 371 kts | 217° |
| 2026-04-24 14:56 | 24.28575 | 114.06943 | 26680 ft | 370 kts | 217° |
| 2026-04-24 14:57 | 24.26387 | 114.05468 | 26675 ft | 369 kts | 218° |
| 2026-04-24 14:57 | 24.24223 | 114.03955 | 26675 ft | 369 kts | 218° |
| 2026-04-24 14:57 | 24.22038 | 114.02428 | 26669 ft | 368 kts | 219° |
| 2026-04-24 14:57 | 24.19882 | 114.00925 | 26670 ft | 370 kts | 218° |
| 2026-04-24 14:58 | 24.17710 | 113.99412 | 26677 ft | 372 kts | 218° |
| 2026-04-24 14:58 | 24.15508 | 113.97884 | 26681 ft | 371 kts | 218° |
| 2026-04-24 14:58 | 24.13351 | 113.96386 | 26678 ft | 372 kts | 218° |
| 2026-04-24 14:58 | 24.11165 | 113.94828 | 26681 ft | 371 kts | 222° |
| 2026-04-24 14:59 | 24.09208 | 113.93046 | 26681 ft | 366 kts | 227° |
| 2026-04-24 14:59 | 24.07299 | 113.91168 | 26680 ft | 365 kts | 227° |
| 2026-04-24 14:59 | 24.05413 | 113.89309 | 26679 ft | 366 kts | 227° |
| 2026-04-24 14:59 | 24.03516 | 113.87439 | 26681 ft | 366 kts | 227° |
| 2026-04-24 15:00 | 24.01622 | 113.85575 | 26682 ft | 365 kts | 227° |
| 2026-04-24 15:00 | 23.99729 | 113.83713 | 26681 ft | 368 kts | 227° |
| 2026-04-24 15:00 | 23.97840 | 113.81856 | 26673 ft | 368 kts | 227° |
| 2026-04-24 15:00 | 23.95925 | 113.79974 | 26665 ft | 367 kts | 227° |
| 2026-04-24 15:01 | 23.94023 | 113.78107 | 26666 ft | 369 kts | 227° |
| 2026-04-24 15:01 | 23.92116 | 113.76235 | 26659 ft | 367 kts | 227° |
| 2026-04-24 15:01 | 23.90219 | 113.74375 | 26655 ft | 365 kts | 227° |
| 2026-04-24 15:01 | 23.88306 | 113.72498 | 26661 ft | 370 kts | 227° |
| 2026-04-24 15:02 | 23.86407 | 113.70636 | 26649 ft | 370 kts | 227° |
| 2026-04-24 15:02 | 23.84497 | 113.68765 | 26656 ft | 366 kts | 227° |
| 2026-04-24 15:02 | 23.82581 | 113.66888 | 26654 ft | 369 kts | 227° |
| 2026-04-24 15:02 | 23.80679 | 113.65026 | 26649 ft | 369 kts | 227° |
| 2026-04-24 15:03 | 23.78900 | 113.63286 | 26664 ft | 366 kts | 227° |
| 2026-04-24 15:03 | 23.77004 | 113.61430 | 26672 ft | 367 kts | 227° |
| 2026-04-24 15:03 | 23.75107 | 113.59576 | 26667 ft | 368 kts | 227° |
| 2026-04-24 15:03 | 23.73279 | 113.57789 | 26664 ft | 366 kts | 227° |
| 2026-04-24 15:04 | 23.71512 | 113.56062 | 26660 ft | 366 kts | 227° |
| 2026-04-24 15:04 | 23.69721 | 113.54312 | 26662 ft | 368 kts | 227° |
| 2026-04-24 15:04 | 23.67809 | 113.52446 | 26664 ft | 367 kts | 227° |
| 2026-04-24 15:04 | 23.66149 | 113.50827 | 26655 ft | 366 kts | 227° |
| 2026-04-24 15:05 | 23.64248 | 113.48972 | 26660 ft | 367 kts | 227° |
| 2026-04-24 15:05 | 23.62346 | 113.47116 | 26656 ft | 368 kts | 227° |
| 2026-04-24 15:05 | 23.60437 | 113.45256 | 26659 ft | 369 kts | 227° |
| 2026-04-24 15:05 | 23.58513 | 113.43381 | 26652 ft | 368 kts | 227° |
| 2026-04-24 15:06 | 23.56625 | 113.41543 | 26655 ft | 367 kts | 227° |
| 2026-04-24 15:06 | 23.54651 | 113.39736 | 26652 ft | 369 kts | 221° |
| 2026-04-24 15:06 | 23.52441 | 113.38264 | 26642 ft | 376 kts | 213° |
| 2026-04-24 15:06 | 23.49983 | 113.37154 | 26649 ft | 385 kts | 206° |
| 2026-04-24 15:07 | 23.47481 | 113.36196 | 26638 ft | 383 kts | 206° |
| 2026-04-24 15:07 | 23.44979 | 113.35246 | 26637 ft | 384 kts | 206° |
| 2026-04-24 15:07 | 23.42396 | 113.34263 | 26657 ft | 387 kts | 206° |
| 2026-04-24 15:07 | 23.39877 | 113.33306 | 26656 ft | 385 kts | 206° |
| 2026-04-24 15:08 | 23.37347 | 113.32345 | 26663 ft | 385 kts | 206° |
| 2026-04-24 15:08 | 23.34818 | 113.31383 | 26660 ft | 386 kts | 206° |
| 2026-04-24 15:08 | 23.32268 | 113.30416 | 26531 ft | 379 kts | 206° |
| 2026-04-24 15:08 | 23.29798 | 113.29479 | 26138 ft | 375 kts | 206° |
| 2026-04-24 15:09 | 23.27350 | 113.28549 | 25688 ft | 372 kts | 206° |
| 2026-04-24 15:09 | 23.24898 | 113.27618 | 25249 ft | 369 kts | 206° |
| 2026-04-24 15:09 | 23.22492 | 113.26704 | 24834 ft | 366 kts | 205° |
| 2026-04-24 15:09 | 23.20100 | 113.25797 | 24409 ft | 363 kts | 205° |
| 2026-04-24 15:10 | 23.17712 | 113.24891 | 23979 ft | 361 kts | 205° |
| 2026-04-24 15:10 | 23.15315 | 113.23980 | 23552 ft | 369 kts | 205° |
| 2026-04-24 15:10 | 23.12878 | 113.23053 | 23107 ft | 375 kts | 205° |
| 2026-04-24 15:10 | 23.10331 | 113.22337 | 22634 ft | 381 kts | 194° |
| 2026-04-24 15:11 | 23.07661 | 113.22182 | 22151 ft | 387 kts | 183° |
| 2026-04-24 15:11 | 23.04977 | 113.22599 | 21669 ft | 393 kts | 171° |
| 2026-04-24 15:11 | 23.02397 | 113.23571 | 21176 ft | 400 kts | 160° |
| 2026-04-24 15:11 | 22.99950 | 113.25088 | 20553 ft | 408 kts | 149° |
| 2026-04-24 15:12 | 22.97783 | 113.27109 | 19905 ft | 417 kts | 137° |
| 2026-04-24 15:12 | 22.94613 | 113.32492 | 18466 ft | 433 kts | 113° |
| 2026-04-24 15:12 | 22.93482 | 113.35487 | 17676 ft | 429 kts | 113° |
| 2026-04-24 15:13 | 22.92308 | 113.38442 | 17008 ft | 419 kts | 116° |
| 2026-04-24 15:13 | 22.90910 | 113.41132 | 16363 ft | 408 kts | 127° |
| 2026-04-24 15:13 | 22.89115 | 113.43444 | 15854 ft | 391 kts | 139° |
| 2026-04-24 15:13 | 22.87058 | 113.45245 | 15452 ft | 373 kts | 150° |
| 2026-04-24 15:14 | 22.84792 | 113.46512 | 14913 ft | 359 kts | 163° |
| 2026-04-24 15:14 | 22.82415 | 113.47176 | 14245 ft | 352 kts | 175° |
| 2026-04-24 15:14 | 22.79987 | 113.47490 | 13739 ft | 353 kts | 176° |
| 2026-04-24 15:14 | 22.77539 | 113.47634 | 13349 ft | 347 kts | 187° |
| 2026-04-24 15:15 | 22.75221 | 113.47065 | 12894 ft | 339 kts | 206° |
| 2026-04-24 15:15 | 22.73281 | 113.45721 | 12513 ft | 329 kts | 226° |
| 2026-04-24 15:15 | 22.71921 | 113.43793 | 12144 ft | 320 kts | 246° |
| 2026-04-24 15:15 | 22.71063 | 113.41592 | 11745 ft | 316 kts | 251° |
| 2026-04-24 15:16 | 22.70263 | 113.39368 | 11336 ft | 315 kts | 250° |
| 2026-04-24 15:16 | 22.69442 | 113.37194 | 10963 ft | 314 kts | 249° |
| 2026-04-24 15:16 | 22.68562 | 113.35020 | 10550 ft | 314 kts | 243° |
| 2026-04-24 15:16 | 22.67185 | 113.33218 | 10119 ft | 317 kts | 221° |
| 2026-04-24 15:17 | 22.65243 | 113.32112 | 9744 ft | 314 kts | 196° |
| 2026-04-24 15:17 | 22.63116 | 113.31923 | 9510 ft | 300 kts | 173° |
| 2026-04-24 15:17 | 22.61174 | 113.32576 | 9293 ft | 288 kts | 152° |
| 2026-04-24 15:17 | 22.59604 | 113.33875 | 8838 ft | 286 kts | 131° |
| 2026-04-24 15:18 | 22.58542 | 113.35684 | 8285 ft | 287 kts | 110° |
| 2026-04-24 15:18 | 22.57946 | 113.37731 | 7813 ft | 285 kts | 106° |
| 2026-04-24 15:18 | 22.57413 | 113.39778 | 7335 ft | 282 kts | 106° |
| 2026-04-24 15:18 | 22.56888 | 113.41811 | 7036 ft | 280 kts | 106° |
| 2026-04-24 15:19 | 22.56363 | 113.43839 | 6790 ft | 278 kts | 106° |
| 2026-04-24 15:19 | 22.55845 | 113.45841 | 6548 ft | 277 kts | 107° |
| 2026-04-24 15:19 | 22.55322 | 113.47860 | 6348 ft | 274 kts | 107° |
| 2026-04-24 15:19 | 22.54813 | 113.49824 | 6278 ft | 267 kts | 106° |
| 2026-04-24 15:20 | 22.54324 | 113.51711 | 6161 ft | 254 kts | 107° |
| 2026-04-24 15:20 | 22.53857 | 113.53513 | 5931 ft | 246 kts | 107° |
| 2026-04-24 15:20 | 22.53403 | 113.55257 | 5703 ft | 239 kts | 107° |
| 2026-04-24 15:20 | 22.52789 | 113.56921 | 5497 ft | 237 kts | 118° |
| 2026-04-24 15:21 | 22.52005 | 113.58493 | 5253 ft | 237 kts | 119° |
| 2026-04-24 15:21 | 22.51203 | 113.60066 | 5010 ft | 238 kts | 119° |
| 2026-04-24 15:21 | 22.50402 | 113.61643 | 4578 ft | 246 kts | 118° |
| 2026-04-24 15:21 | 22.49566 | 113.63296 | 3895 ft | 252 kts | 117° |
| 2026-04-24 15:22 | 22.48745 | 113.64957 | 3357 ft | 255 kts | 113° |
| 2026-04-24 15:22 | 22.48107 | 113.66722 | 2766 ft | 252 kts | 107° |
| 2026-04-24 15:22 | 22.47556 | 113.68459 | 2625 ft | 232 kts | 107° |
| 2026-04-24 15:23 | 22.46559 | 113.71582 | 2631 ft | 213 kts | 107° |
| 2026-04-24 15:23 | 22.45584 | 113.74613 | 2629 ft | 212 kts | 107° |
| 2026-04-24 15:23 | 22.45104 | 113.76106 | 2638 ft | 212 kts | 107° |
| 2026-04-24 15:24 | 22.45116 | 113.80662 | 2633 ft | 208 kts | 64° |
| 2026-04-24 15:25 | 22.46182 | 113.82961 | 2512 ft | 200 kts | 62° |
| 2026-04-24 15:25 | 22.47570 | 113.85883 | 2289 ft | 177 kts | 58° |
| 2026-04-24 15:26 | 22.50864 | 113.86454 | 2140 ft | 181 kts | 340° |
| 2026-04-24 15:27 | 22.54183 | 113.84605 | 1778 ft | 169 kts | 338° |
| 2026-04-24 15:27 | 22.57169 | 113.82992 | 1180 ft | 159 kts | 337° |
| 2026-04-24 15:28 | 22.60610 | 113.81126 | 386 ft | 129 kts | 336° |
| 2026-04-24 15:29 | 22.62231 | 113.80238 | 104 ft | 129 kts | 336° |
| 2026-04-24 15:30 | 22.63989 | 113.79288 | 27 ft | 32 kts | 336° |
| 2026-04-24 15:31 | 22.64271 | 113.79345 | 27 ft | 10 kts | 156° |
| 2026-04-24 15:32 | 22.63999 | 113.79497 | 27 ft | 10 kts | 154° |
| 2026-04-24 15:33 | 22.63736 | 113.79645 | 27 ft | 12 kts | 152° |
| 2026-04-24 15:33 | 22.63432 | 113.79806 | 27 ft | 19 kts | 153° |
| 2026-04-24 15:34 | 22.63170 | 113.79952 | 27 ft | 23 kts | 151° |
| 2026-04-24 15:35 | 22.62931 | 113.80137 | 27 ft | 8 kts | 70° |
| 2026-04-24 15:35 | 22.62968 | 113.80170 | 27 ft | 0 kts | 350° |
| 2026-04-24 15:35 | 22.62987 | 113.80159 | 27 ft | 9 kts | 329° |
| 2026-04-24 15:36 | 22.63026 | 113.80136 | 27 ft | 0 kts | 335° |
| 2026-04-24 15:36 | 22.63063 | 113.80177 | 27 ft | 10 kts | 47° |
| 2026-04-24 15:36 | 22.63089 | 113.80203 | 27 ft | 7 kts | 43° |
| 2026-04-24 15:37 | 22.63104 | 113.80219 | 27 ft | 0 kts | 44° |
| 2026-04-24 15:37 | 22.63103 | 113.80218 | 27 ft | 0 kts | 44° |